sensor_id;sensor_type;location;lat;lon;timestamp;P1;durP1;ratioP1;P2;durP2;ratioP2
27187;SDS011;14708;50.872;5.306;2022-07-03T00:01:19;1.73;;;0.90;;
27187;SDS011;14708;50.872;5.306;2022-07-03T00:03:46;1.88;;;1.23;;
27187;SDS011;14708;50.872;5.306;2022-07-03T00:06:15;2.20;;;1.02;;
27187;SDS011;14708;50.872;5.306;2022-07-03T00:08:43;1.20;;;0.85;;
27187;SDS011;14708;50.872;5.306;2022-07-03T00:11:08;1.23;;;1.00;;
27187;SDS011;14708;50.872;5.306;2022-07-03T00:13:34;1.15;;;1.00;;
27187;SDS011;14708;50.872;5.306;2022-07-03T00:16:00;1.58;;;0.93;;
27187;SDS011;14708;50.872;5.306;2022-07-03T00:18:26;1.88;;;1.10;;
27187;SDS011;14708;50.872;5.306;2022-07-03T00:20:59;1.15;;;0.90;;
27187;SDS011;14708;50.872;5.306;2022-07-03T00:23:30;2.58;;;1.10;;
27187;SDS011;14708;50.872;5.306;2022-07-03T00:26:05;1.63;;;1.10;;
27187;SDS011;14708;50.872;5.306;2022-07-03T00:28:32;1.85;;;1.60;;
27187;SDS011;14708;50.872;5.306;2022-07-03T00:30:58;2.05;;;0.95;;
27187;SDS011;14708;50.872;5.306;2022-07-03T00:33:25;1.27;;;0.90;;
27187;SDS011;14708;50.872;5.306;2022-07-03T00:36:00;0.90;;;0.77;;
27187;SDS011;14708;50.872;5.306;2022-07-03T00:38:28;1.35;;;1.10;;
27187;SDS011;14708;50.872;5.306;2022-07-03T00:40:54;1.10;;;0.98;;
27187;SDS011;14708;50.872;5.306;2022-07-03T00:43:19;2.10;;;1.05;;
27187;SDS011;14708;50.872;5.306;2022-07-03T00:45:47;1.15;;;0.90;;
27187;SDS011;14708;50.872;5.306;2022-07-03T00:48:14;1.13;;;0.90;;
27187;SDS011;14708;50.872;5.306;2022-07-03T00:50:44;1.33;;;1.10;;
27187;SDS011;14708;50.872;5.306;2022-07-03T00:53:13;0.95;;;0.90;;
27187;SDS011;14708;50.872;5.306;2022-07-03T00:55:42;2.15;;;1.00;;
27187;SDS011;14708;50.872;5.306;2022-07-03T00:58:13;1.58;;;1.10;;
27187;SDS011;14708;50.872;5.306;2022-07-03T01:00:42;1.30;;;0.93;;
27187;SDS011;14708;50.872;5.306;2022-07-03T01:03:14;1.38;;;0.73;;
27187;SDS011;14708;50.872;5.306;2022-07-03T01:05:52;1.15;;;0.85;;
27187;SDS011;14708;50.872;5.306;2022-07-03T01:11:21;1.23;;;0.98;;
27187;SDS011;14708;50.872;5.306;2022-07-03T01:14:13;1.20;;;0.90;;
27187;SDS011;14708;50.872;5.306;2022-07-03T01:16:59;1.30;;;0.80;;
27187;SDS011;14708;50.872;5.306;2022-07-03T01:30:22;1.75;;;0.82;;
27187;SDS011;14708;50.872;5.306;2022-07-03T01:33:01;1.55;;;0.90;;
27187;SDS011;14708;50.872;5.306;2022-07-03T01:35:35;1.55;;;0.90;;
27187;SDS011;14708;50.872;5.306;2022-07-03T01:38:09;1.10;;;0.95;;
27187;SDS011;14708;50.872;5.306;2022-07-03T01:40:38;1.38;;;0.85;;
27187;SDS011;14708;50.872;5.306;2022-07-03T01:43:11;1.13;;;0.98;;
27187;SDS011;14708;50.872;5.306;2022-07-03T01:45:47;1.30;;;0.95;;
27187;SDS011;14708;50.872;5.306;2022-07-03T01:48:14;1.42;;;1.08;;
27187;SDS011;14708;50.872;5.306;2022-07-03T01:50:41;1.10;;;0.95;;
27187;SDS011;14708;50.872;5.306;2022-07-03T01:53:09;1.23;;;1.00;;
27187;SDS011;14708;50.872;5.306;2022-07-03T01:55:40;1.58;;;0.98;;
27187;SDS011;14708;50.872;5.306;2022-07-03T01:58:07;1.60;;;1.00;;
27187;SDS011;14708;50.872;5.306;2022-07-03T02:00:40;0.90;;;0.80;;
27187;SDS011;14708;50.872;5.306;2022-07-03T02:03:21;1.08;;;0.90;;
27187;SDS011;14708;50.872;5.306;2022-07-03T02:05:55;1.65;;;1.10;;
27187;SDS011;14708;50.872;5.306;2022-07-03T02:11:26;1.13;;;0.80;;
27187;SDS011;14708;50.872;5.306;2022-07-03T02:22:19;3.53;;;1.20;;
27187;SDS011;14708;50.872;5.306;2022-07-03T02:27:19;2.78;;;1.00;;
27187;SDS011;14708;50.872;5.306;2022-07-03T02:29:47;1.08;;;0.88;;
27187;SDS011;14708;50.872;5.306;2022-07-03T02:32:40;1.00;;;0.90;;
27187;SDS011;14708;50.872;5.306;2022-07-03T02:35:12;1.08;;;0.95;;
27187;SDS011;14708;50.872;5.306;2022-07-03T02:37:53;1.88;;;0.98;;
27187;SDS011;14708;50.872;5.306;2022-07-03T02:40:26;1.07;;;0.97;;
27187;SDS011;14708;50.872;5.306;2022-07-03T02:45:26;2.03;;;1.13;;
27187;SDS011;14708;50.872;5.306;2022-07-03T02:48:05;1.23;;;0.80;;
27187;SDS011;14708;50.872;5.306;2022-07-03T02:50:37;1.75;;;1.27;;
27187;SDS011;14708;50.872;5.306;2022-07-03T02:53:08;1.42;;;1.00;;
27187;SDS011;14708;50.872;5.306;2022-07-03T02:55:45;1.52;;;0.93;;
27187;SDS011;14708;50.872;5.306;2022-07-03T03:03:37;1.20;;;0.90;;
27187;SDS011;14708;50.872;5.306;2022-07-03T03:06:20;0.85;;;0.80;;
27187;SDS011;14708;50.872;5.306;2022-07-03T03:08:48;1.30;;;0.80;;
27187;SDS011;14708;50.872;5.306;2022-07-03T03:11:29;1.25;;;1.10;;
27187;SDS011;14708;50.872;5.306;2022-07-03T03:14:13;1.40;;;0.90;;
27187;SDS011;14708;50.872;5.306;2022-07-03T03:16:47;1.42;;;0.80;;
27187;SDS011;14708;50.872;5.306;2022-07-03T03:19:21;0.88;;;0.88;;
27187;SDS011;14708;50.872;5.306;2022-07-03T03:21:58;1.23;;;0.80;;
27187;SDS011;14708;50.872;5.306;2022-07-03T03:24:34;1.77;;;1.10;;
27187;SDS011;14708;50.872;5.306;2022-07-03T03:27:18;0.80;;;0.80;;
27187;SDS011;14708;50.872;5.306;2022-07-03T03:29:44;1.20;;;0.93;;
27187;SDS011;14708;50.872;5.306;2022-07-03T03:32:10;0.82;;;0.82;;
27187;SDS011;14708;50.872;5.306;2022-07-03T03:34:36;2.17;;;0.80;;
27187;SDS011;14708;50.872;5.306;2022-07-03T03:37:04;1.10;;;1.00;;
27187;SDS011;14708;50.872;5.306;2022-07-03T03:39:31;0.77;;;0.73;;
27187;SDS011;14708;50.872;5.306;2022-07-03T03:41:57;1.05;;;0.88;;
27187;SDS011;14708;50.872;5.306;2022-07-03T03:44:26;1.83;;;0.90;;
27187;SDS011;14708;50.872;5.306;2022-07-03T03:46:51;0.80;;;0.80;;
27187;SDS011;14708;50.872;5.306;2022-07-03T03:49:17;1.42;;;1.10;;
27187;SDS011;14708;50.872;5.306;2022-07-03T03:51:43;0.85;;;0.77;;
27187;SDS011;14708;50.872;5.306;2022-07-03T03:54:09;2.10;;;1.00;;
27187;SDS011;14708;50.872;5.306;2022-07-03T03:56:34;1.63;;;1.15;;
27187;SDS011;14708;50.872;5.306;2022-07-03T03:59:00;1.00;;;0.90;;
27187;SDS011;14708;50.872;5.306;2022-07-03T04:01:26;1.95;;;0.80;;
27187;SDS011;14708;50.872;5.306;2022-07-03T04:03:51;1.58;;;0.82;;
27187;SDS011;14708;50.872;5.306;2022-07-03T04:06:24;1.95;;;1.00;;
27187;SDS011;14708;50.872;5.306;2022-07-03T04:08:50;1.48;;;0.93;;
27187;SDS011;14708;50.872;5.306;2022-07-03T04:11:16;1.90;;;0.85;;
27187;SDS011;14708;50.872;5.306;2022-07-03T04:13:42;1.08;;;0.70;;
27187;SDS011;14708;50.872;5.306;2022-07-03T04:16:07;1.15;;;1.00;;
27187;SDS011;14708;50.872;5.306;2022-07-03T04:18:33;1.52;;;1.05;;
27187;SDS011;14708;50.872;5.306;2022-07-03T04:20:59;2.15;;;0.80;;
27187;SDS011;14708;50.872;5.306;2022-07-03T04:23:25;1.60;;;1.15;;
27187;SDS011;14708;50.872;5.306;2022-07-03T04:25:51;1.40;;;0.90;;
27187;SDS011;14708;50.872;5.306;2022-07-03T04:28:16;0.88;;;0.80;;
27187;SDS011;14708;50.872;5.306;2022-07-03T04:30:42;1.05;;;0.90;;
27187;SDS011;14708;50.872;5.306;2022-07-03T04:33:08;2.22;;;1.00;;
27187;SDS011;14708;50.872;5.306;2022-07-03T04:35:33;1.05;;;0.93;;
27187;SDS011;14708;50.872;5.306;2022-07-03T04:37:59;0.95;;;0.77;;
27187;SDS011;14708;50.872;5.306;2022-07-03T04:40:25;1.13;;;0.90;;
27187;SDS011;14708;50.872;5.306;2022-07-03T04:42:50;1.23;;;0.82;;
27187;SDS011;14708;50.872;5.306;2022-07-03T04:45:16;0.85;;;0.80;;
27187;SDS011;14708;50.872;5.306;2022-07-03T04:47:42;1.00;;;0.90;;
27187;SDS011;14708;50.872;5.306;2022-07-03T04:50:25;0.80;;;0.80;;
27187;SDS011;14708;50.872;5.306;2022-07-03T04:52:50;0.85;;;0.85;;
27187;SDS011;14708;50.872;5.306;2022-07-03T04:55:16;0.88;;;0.77;;
27187;SDS011;14708;50.872;5.306;2022-07-03T04:57:42;1.73;;;1.15;;
27187;SDS011;14708;50.872;5.306;2022-07-03T05:00:07;1.45;;;0.88;;
27187;SDS011;14708;50.872;5.306;2022-07-03T05:02:33;0.85;;;0.80;;
27187;SDS011;14708;50.872;5.306;2022-07-03T05:04:59;1.05;;;0.95;;
27187;SDS011;14708;50.872;5.306;2022-07-03T05:07:25;0.90;;;0.73;;
27187;SDS011;14708;50.872;5.306;2022-07-03T05:09:51;1.05;;;0.95;;
27187;SDS011;14708;50.872;5.306;2022-07-03T05:12:16;0.75;;;0.70;;
27187;SDS011;14708;50.872;5.306;2022-07-03T05:14:43;0.70;;;0.70;;
27187;SDS011;14708;50.872;5.306;2022-07-03T05:17:08;0.93;;;0.85;;
27187;SDS011;14708;50.872;5.306;2022-07-03T05:19:36;0.93;;;0.82;;
27187;SDS011;14708;50.872;5.306;2022-07-03T05:22:03;0.98;;;0.80;;
27187;SDS011;14708;50.872;5.306;2022-07-03T05:24:28;1.10;;;1.00;;
27187;SDS011;14708;50.872;5.306;2022-07-03T05:26:54;0.77;;;0.68;;
27187;SDS011;14708;50.872;5.306;2022-07-03T05:29:25;0.75;;;0.75;;
27187;SDS011;14708;50.872;5.306;2022-07-03T05:31:50;1.20;;;0.82;;
27187;SDS011;14708;50.872;5.306;2022-07-03T05:34:16;0.93;;;0.82;;
27187;SDS011;14708;50.872;5.306;2022-07-03T05:36:42;1.45;;;0.80;;
27187;SDS011;14708;50.872;5.306;2022-07-03T05:39:08;1.00;;;0.70;;
27187;SDS011;14708;50.872;5.306;2022-07-03T05:41:52;1.13;;;0.75;;
27187;SDS011;14708;50.872;5.306;2022-07-03T05:44:17;0.80;;;0.70;;
27187;SDS011;14708;50.872;5.306;2022-07-03T05:46:43;0.65;;;0.63;;
27187;SDS011;14708;50.872;5.306;2022-07-03T05:49:09;1.25;;;0.88;;
27187;SDS011;14708;50.872;5.306;2022-07-03T05:51:34;0.82;;;0.82;;
27187;SDS011;14708;50.872;5.306;2022-07-03T05:54:00;0.80;;;0.77;;
27187;SDS011;14708;50.872;5.306;2022-07-03T05:56:25;4.43;;;1.17;;
27187;SDS011;14708;50.872;5.306;2022-07-03T05:58:51;2.55;;;1.25;;
27187;SDS011;14708;50.872;5.306;2022-07-03T06:01:16;3.67;;;1.25;;
27187;SDS011;14708;50.872;5.306;2022-07-03T06:03:45;2.50;;;1.27;;
27187;SDS011;14708;50.872;5.306;2022-07-03T06:06:12;5.63;;;1.40;;
27187;SDS011;14708;50.872;5.306;2022-07-03T06:08:38;4.63;;;1.55;;
27187;SDS011;14708;50.872;5.306;2022-07-03T06:11:04;5.97;;;1.40;;
27187;SDS011;14708;50.872;5.306;2022-07-03T06:13:29;3.72;;;1.20;;
27187;SDS011;14708;50.872;5.306;2022-07-03T06:15:55;3.08;;;1.40;;
27187;SDS011;14708;50.872;5.306;2022-07-03T06:18:20;4.93;;;1.20;;
27187;SDS011;14708;50.872;5.306;2022-07-03T06:20:46;6.03;;;1.15;;
27187;SDS011;14708;50.872;5.306;2022-07-03T06:23:11;5.03;;;1.42;;
27187;SDS011;14708;50.872;5.306;2022-07-03T06:25:37;4.43;;;1.23;;
27187;SDS011;14708;50.872;5.306;2022-07-03T06:28:03;7.22;;;1.20;;
27187;SDS011;14708;50.872;5.306;2022-07-03T06:30:28;2.22;;;0.88;;
27187;SDS011;14708;50.872;5.306;2022-07-03T06:32:54;3.40;;;1.10;;
27187;SDS011;14708;50.872;5.306;2022-07-03T06:35:20;7.38;;;0.95;;
27187;SDS011;14708;50.872;5.306;2022-07-03T06:37:45;8.52;;;1.38;;
27187;SDS011;14708;50.872;5.306;2022-07-03T06:40:11;10.73;;;1.17;;
27187;SDS011;14708;50.872;5.306;2022-07-03T06:42:36;6.15;;;1.55;;
27187;SDS011;14708;50.872;5.306;2022-07-03T06:45:02;5.70;;;1.30;;
27187;SDS011;14708;50.872;5.306;2022-07-03T06:47:46;5.70;;;1.20;;
27187;SDS011;14708;50.872;5.306;2022-07-03T06:50:11;4.78;;;1.65;;
27187;SDS011;14708;50.872;5.306;2022-07-03T06:52:37;3.03;;;1.00;;
27187;SDS011;14708;50.872;5.306;2022-07-03T06:55:03;4.25;;;1.30;;
27187;SDS011;14708;50.872;5.306;2022-07-03T06:57:29;4.47;;;1.08;;
27187;SDS011;14708;50.872;5.306;2022-07-03T06:59:55;3.28;;;1.05;;
27187;SDS011;14708;50.872;5.306;2022-07-03T07:02:21;3.22;;;0.90;;
27187;SDS011;14708;50.872;5.306;2022-07-03T07:04:46;2.08;;;0.90;;
27187;SDS011;14708;50.872;5.306;2022-07-03T07:07:12;3.60;;;0.90;;
27187;SDS011;14708;50.872;5.306;2022-07-03T07:09:37;3.10;;;0.93;;
27187;SDS011;14708;50.872;5.306;2022-07-03T07:12:03;2.72;;;1.02;;
27187;SDS011;14708;50.872;5.306;2022-07-03T07:14:30;3.80;;;1.10;;
27187;SDS011;14708;50.872;5.306;2022-07-03T07:16:55;3.63;;;1.00;;
27187;SDS011;14708;50.872;5.306;2022-07-03T07:19:21;3.08;;;0.90;;
27187;SDS011;14708;50.872;5.306;2022-07-03T07:21:47;3.30;;;0.90;;
27187;SDS011;14708;50.872;5.306;2022-07-03T07:24:12;3.20;;;0.82;;
27187;SDS011;14708;50.872;5.306;2022-07-03T07:26:55;3.65;;;1.15;;
27187;SDS011;14708;50.872;5.306;2022-07-03T07:29:21;57.45;;;8.45;;
27187;SDS011;14708;50.872;5.306;2022-07-03T07:31:47;44.00;;;9.45;;
27187;SDS011;14708;50.872;5.306;2022-07-03T07:34:12;38.60;;;6.53;;
27187;SDS011;14708;50.872;5.306;2022-07-03T07:36:40;35.55;;;6.05;;
27187;SDS011;14708;50.872;5.306;2022-07-03T07:39:06;37.78;;;6.80;;
27187;SDS011;14708;50.872;5.306;2022-07-03T07:41:32;43.60;;;7.68;;
27187;SDS011;14708;50.872;5.306;2022-07-03T07:43:57;28.00;;;5.25;;
27187;SDS011;14708;50.872;5.306;2022-07-03T07:46:24;34.03;;;6.15;;
27187;SDS011;14708;50.872;5.306;2022-07-03T07:48:49;17.38;;;4.15;;
27187;SDS011;14708;50.872;5.306;2022-07-03T07:51:15;8.25;;;2.33;;
27187;SDS011;14708;50.872;5.306;2022-07-03T07:53:41;10.50;;;2.60;;
27187;SDS011;14708;50.872;5.306;2022-07-03T07:56:06;11.68;;;2.25;;
27187;SDS011;14708;50.872;5.306;2022-07-03T07:58:32;7.57;;;1.88;;
27187;SDS011;14708;50.872;5.306;2022-07-03T08:00:57;5.70;;;1.58;;
27187;SDS011;14708;50.872;5.306;2022-07-03T08:03:59;7.85;;;1.70;;
27187;SDS011;14708;50.872;5.306;2022-07-03T08:06:43;6.13;;;2.10;;
27187;SDS011;14708;50.872;5.306;2022-07-03T08:09:09;2.90;;;1.25;;
27187;SDS011;14708;50.872;5.306;2022-07-03T08:11:34;7.25;;;1.63;;
27187;SDS011;14708;50.872;5.306;2022-07-03T08:14:00;7.80;;;1.33;;
27187;SDS011;14708;50.872;5.306;2022-07-03T08:16:35;5.75;;;1.42;;
27187;SDS011;14708;50.872;5.306;2022-07-03T08:19:00;6.00;;;1.80;;
27187;SDS011;14708;50.872;5.306;2022-07-03T08:21:26;4.32;;;1.35;;
27187;SDS011;14708;50.872;5.306;2022-07-03T08:23:52;7.18;;;1.25;;
27187;SDS011;14708;50.872;5.306;2022-07-03T08:26:18;5.57;;;1.60;;
27187;SDS011;14708;50.872;5.306;2022-07-03T08:28:43;5.82;;;1.20;;
27187;SDS011;14708;50.872;5.306;2022-07-03T08:31:09;6.55;;;1.33;;
27187;SDS011;14708;50.872;5.306;2022-07-03T08:33:35;3.58;;;1.45;;
27187;SDS011;14708;50.872;5.306;2022-07-03T08:36:01;5.35;;;1.25;;
27187;SDS011;14708;50.872;5.306;2022-07-03T08:38:31;3.40;;;1.10;;
27187;SDS011;14708;50.872;5.306;2022-07-03T08:40:59;3.40;;;1.25;;
27187;SDS011;14708;50.872;5.306;2022-07-03T08:43:26;7.35;;;1.10;;
27187;SDS011;14708;50.872;5.306;2022-07-03T08:45:52;1.85;;;1.10;;
27187;SDS011;14708;50.872;5.306;2022-07-03T08:48:20;4.75;;;1.20;;
27187;SDS011;14708;50.872;5.306;2022-07-03T08:50:47;2.67;;;1.00;;
27187;SDS011;14708;50.872;5.306;2022-07-03T08:53:22;4.80;;;1.10;;
27187;SDS011;14708;50.872;5.306;2022-07-03T08:55:48;3.95;;;0.90;;
27187;SDS011;14708;50.872;5.306;2022-07-03T08:58:14;3.35;;;1.15;;
27187;SDS011;14708;50.872;5.306;2022-07-03T09:00:40;6.40;;;1.20;;
27187;SDS011;14708;50.872;5.306;2022-07-03T09:03:10;3.55;;;1.38;;
27187;SDS011;14708;50.872;5.306;2022-07-03T09:05:36;4.35;;;1.00;;
27187;SDS011;14708;50.872;5.306;2022-07-03T09:08:05;4.30;;;1.52;;
27187;SDS011;14708;50.872;5.306;2022-07-03T09:10:32;8.55;;;1.40;;
27187;SDS011;14708;50.872;5.306;2022-07-03T09:12:58;5.85;;;1.02;;
27187;SDS011;14708;50.872;5.306;2022-07-03T09:15:24;12.85;;;2.95;;
27187;SDS011;14708;50.872;5.306;2022-07-03T09:21:04;13.65;;;2.63;;
27187;SDS011;14708;50.872;5.306;2022-07-03T09:23:43;37.75;;;9.68;;
27187;SDS011;14708;50.872;5.306;2022-07-03T09:26:13;46.22;;;12.50;;
27187;SDS011;14708;50.872;5.306;2022-07-03T09:31:21;29.85;;;9.93;;
27187;SDS011;14708;50.872;5.306;2022-07-03T09:36:44;24.05;;;9.13;;
27187;SDS011;14708;50.872;5.306;2022-07-03T09:41:53;24.13;;;6.95;;
27187;SDS011;14708;50.872;5.306;2022-07-03T09:44:30;20.65;;;6.60;;
27187;SDS011;14708;50.872;5.306;2022-07-03T09:47:16;15.57;;;5.50;;
27187;SDS011;14708;50.872;5.306;2022-07-03T09:49:44;10.88;;;4.10;;
27187;SDS011;14708;50.872;5.306;2022-07-03T09:52:25;25.65;;;6.60;;
27187;SDS011;14708;50.872;5.306;2022-07-03T09:55:11;54.10;;;13.15;;
27187;SDS011;14708;50.872;5.306;2022-07-03T09:57:38;232.85;;;54.55;;
27187;SDS011;14708;50.872;5.306;2022-07-03T10:00:17;83.43;;;20.98;;
27187;SDS011;14708;50.872;5.306;2022-07-03T10:05:33;84.20;;;19.58;;
27187;SDS011;14708;50.872;5.306;2022-07-03T10:08:00;69.75;;;16.48;;
27187;SDS011;14708;50.872;5.306;2022-07-03T10:10:32;48.60;;;13.02;;
27187;SDS011;14708;50.872;5.306;2022-07-03T10:13:02;50.95;;;12.32;;
27187;SDS011;14708;50.872;5.306;2022-07-03T10:15:29;29.40;;;7.10;;
27187;SDS011;14708;50.872;5.306;2022-07-03T10:17:57;23.05;;;5.63;;
27187;SDS011;14708;50.872;5.306;2022-07-03T10:20:25;15.75;;;4.72;;
27187;SDS011;14708;50.872;5.306;2022-07-03T10:22:54;10.43;;;3.42;;
27187;SDS011;14708;50.872;5.306;2022-07-03T10:25:20;4.95;;;2.10;;
27187;SDS011;14708;50.872;5.306;2022-07-03T10:27:46;4.40;;;1.58;;
27187;SDS011;14708;50.872;5.306;2022-07-03T10:30:16;8.30;;;1.80;;
27187;SDS011;14708;50.872;5.306;2022-07-03T10:32:44;12.23;;;1.42;;
27187;SDS011;14708;50.872;5.306;2022-07-03T10:35:15;6.72;;;1.73;;
27187;SDS011;14708;50.872;5.306;2022-07-03T10:37:55;6.85;;;1.70;;
27187;SDS011;14708;50.872;5.306;2022-07-03T10:43:40;7.22;;;1.70;;
27187;SDS011;14708;50.872;5.306;2022-07-03T10:46:27;4.18;;;1.30;;
27187;SDS011;14708;50.872;5.306;2022-07-03T10:49:10;4.68;;;1.50;;
27187;SDS011;14708;50.872;5.306;2022-07-03T10:54:18;5.45;;;1.65;;
27187;SDS011;14708;50.872;5.306;2022-07-03T11:02:17;4.13;;;1.58;;
27187;SDS011;14708;50.872;5.306;2022-07-03T11:07:35;4.03;;;1.40;;
27187;SDS011;14708;50.872;5.306;2022-07-03T11:18:15;7.32;;;1.75;;
27187;SDS011;14708;50.872;5.306;2022-07-03T11:21:16;6.63;;;2.00;;
27187;SDS011;14708;50.872;5.306;2022-07-03T11:24:14;7.85;;;1.95;;
27187;SDS011;14708;50.872;5.306;2022-07-03T11:26:41;7.60;;;1.80;;
27187;SDS011;14708;50.872;5.306;2022-07-03T11:29:07;9.20;;;2.30;;
27187;SDS011;14708;50.872;5.306;2022-07-03T11:31:50;7.85;;;2.17;;
27187;SDS011;14708;50.872;5.306;2022-07-03T11:34:18;6.43;;;1.88;;
27187;SDS011;14708;50.872;5.306;2022-07-03T11:36:44;6.40;;;1.90;;
27187;SDS011;14708;50.872;5.306;2022-07-03T11:39:18;5.60;;;1.85;;
27187;SDS011;14708;50.872;5.306;2022-07-03T11:41:45;4.15;;;1.88;;
27187;SDS011;14708;50.872;5.306;2022-07-03T11:44:18;6.70;;;1.98;;
27187;SDS011;14708;50.872;5.306;2022-07-03T11:46:49;10.27;;;2.33;;
27187;SDS011;14708;50.872;5.306;2022-07-03T11:49:16;4.18;;;2.03;;
27187;SDS011;14708;50.872;5.306;2022-07-03T11:52:02;7.05;;;2.00;;
27187;SDS011;14708;50.872;5.306;2022-07-03T11:54:30;14.02;;;2.63;;
27187;SDS011;14708;50.872;5.306;2022-07-03T11:57:15;5.00;;;1.98;;
27187;SDS011;14708;50.872;5.306;2022-07-03T11:59:41;6.03;;;1.40;;
27187;SDS011;14708;50.872;5.306;2022-07-03T12:02:07;5.15;;;1.65;;
27187;SDS011;14708;50.872;5.306;2022-07-03T12:04:33;4.18;;;1.80;;
27187;SDS011;14708;50.872;5.306;2022-07-03T12:06:59;5.00;;;1.45;;
27187;SDS011;14708;50.872;5.306;2022-07-03T12:09:26;3.50;;;1.70;;
27187;SDS011;14708;50.872;5.306;2022-07-03T12:12:10;7.82;;;1.90;;
27187;SDS011;14708;50.872;5.306;2022-07-03T12:17:04;7.97;;;1.50;;
27187;SDS011;14708;50.872;5.306;2022-07-03T12:19:46;3.05;;;1.58;;
27187;SDS011;14708;50.872;5.306;2022-07-03T12:27:32;3.25;;;1.60;;
27187;SDS011;14708;50.872;5.306;2022-07-03T12:30:03;5.05;;;2.28;;
27187;SDS011;14708;50.872;5.306;2022-07-03T12:32:30;2.90;;;1.27;;
27187;SDS011;14708;50.872;5.306;2022-07-03T12:34:56;4.43;;;1.55;;
27187;SDS011;14708;50.872;5.306;2022-07-03T12:37:42;3.92;;;1.52;;
27187;SDS011;14708;50.872;5.306;2022-07-03T12:40:10;4.00;;;1.42;;
27187;SDS011;14708;50.872;5.306;2022-07-03T12:45:33;2.72;;;1.27;;
27187;SDS011;14708;50.872;5.306;2022-07-03T12:48:03;2.33;;;1.27;;
27187;SDS011;14708;50.872;5.306;2022-07-03T12:50:46;4.25;;;1.38;;
27187;SDS011;14708;50.872;5.306;2022-07-03T12:53:28;2.45;;;1.30;;
27187;SDS011;14708;50.872;5.306;2022-07-03T12:55:59;4.30;;;1.52;;
27187;SDS011;14708;50.872;5.306;2022-07-03T12:58:26;5.60;;;1.30;;
27187;SDS011;14708;50.872;5.306;2022-07-03T13:01:28;3.45;;;1.30;;
27187;SDS011;14708;50.872;5.306;2022-07-03T13:03:56;8.57;;;1.60;;
27187;SDS011;14708;50.872;5.306;2022-07-03T13:06:22;5.18;;;1.60;;
27187;SDS011;14708;50.872;5.306;2022-07-03T13:08:56;3.30;;;1.40;;
27187;SDS011;14708;50.872;5.306;2022-07-03T13:16:44;7.75;;;1.92;;
27187;SDS011;14708;50.872;5.306;2022-07-03T13:19:12;4.70;;;1.60;;
27187;SDS011;14708;50.872;5.306;2022-07-03T13:21:45;7.55;;;1.48;;
27187;SDS011;14708;50.872;5.306;2022-07-03T13:24:11;4.15;;;1.63;;
27187;SDS011;14708;50.872;5.306;2022-07-03T13:26:38;6.18;;;1.30;;
27187;SDS011;14708;50.872;5.306;2022-07-03T13:29:04;2.75;;;1.20;;
27187;SDS011;14708;50.872;5.306;2022-07-03T13:31:30;3.20;;;1.10;;
27187;SDS011;14708;50.872;5.306;2022-07-03T13:33:57;4.38;;;1.10;;
27187;SDS011;14708;50.872;5.306;2022-07-03T13:36:24;3.15;;;0.88;;
27187;SDS011;14708;50.872;5.306;2022-07-03T13:38:50;3.75;;;1.38;;
27187;SDS011;14708;50.872;5.306;2022-07-03T13:41:16;1.92;;;1.13;;
27187;SDS011;14708;50.872;5.306;2022-07-03T13:43:43;3.30;;;1.20;;
27187;SDS011;14708;50.872;5.306;2022-07-03T13:46:18;7.90;;;1.48;;
27187;SDS011;14708;50.872;5.306;2022-07-03T13:48:46;4.93;;;1.15;;
27187;SDS011;14708;50.872;5.306;2022-07-03T13:51:13;3.35;;;1.52;;
27187;SDS011;14708;50.872;5.306;2022-07-03T13:53:38;2.15;;;1.00;;
27187;SDS011;14708;50.872;5.306;2022-07-03T13:56:04;3.75;;;0.90;;
27187;SDS011;14708;50.872;5.306;2022-07-03T13:58:30;4.15;;;1.23;;
27187;SDS011;14708;50.872;5.306;2022-07-03T14:00:56;3.90;;;0.98;;
27187;SDS011;14708;50.872;5.306;2022-07-03T14:03:22;5.10;;;1.10;;
27187;SDS011;14708;50.872;5.306;2022-07-03T14:05:48;4.88;;;1.10;;
27187;SDS011;14708;50.872;5.306;2022-07-03T14:08:17;2.97;;;0.90;;
27187;SDS011;14708;50.872;5.306;2022-07-03T14:10:43;2.47;;;0.95;;
27187;SDS011;14708;50.872;5.306;2022-07-03T14:13:10;6.35;;;0.90;;
27187;SDS011;14708;50.872;5.306;2022-07-03T14:15:35;6.50;;;1.48;;
27187;SDS011;14708;50.872;5.306;2022-07-03T14:18:01;1.92;;;0.80;;
27187;SDS011;14708;50.872;5.306;2022-07-03T14:20:27;2.90;;;0.95;;
27187;SDS011;14708;50.872;5.306;2022-07-03T14:23:01;1.80;;;0.82;;
27187;SDS011;14708;50.872;5.306;2022-07-03T14:25:26;1.83;;;0.80;;
27187;SDS011;14708;50.872;5.306;2022-07-03T14:27:52;7.22;;;1.10;;
27187;SDS011;14708;50.872;5.306;2022-07-03T14:30:36;11.00;;;1.08;;
27187;SDS011;14708;50.872;5.306;2022-07-03T14:33:20;6.45;;;0.70;;
27187;SDS011;14708;50.872;5.306;2022-07-03T14:35:46;6.75;;;0.85;;
27187;SDS011;14708;50.872;5.306;2022-07-03T14:38:12;9.88;;;0.90;;
27187;SDS011;14708;50.872;5.306;2022-07-03T14:40:37;11.60;;;1.00;;
27187;SDS011;14708;50.872;5.306;2022-07-03T14:43:03;12.73;;;1.95;;
27187;SDS011;14708;50.872;5.306;2022-07-03T14:45:28;12.65;;;1.80;;
27187;SDS011;14708;50.872;5.306;2022-07-03T14:47:54;13.15;;;1.65;;
27187;SDS011;14708;50.872;5.306;2022-07-03T14:50:21;6.07;;;1.10;;
27187;SDS011;14708;50.872;5.306;2022-07-03T14:52:46;6.90;;;0.93;;
27187;SDS011;14708;50.872;5.306;2022-07-03T14:55:12;5.90;;;0.90;;
27187;SDS011;14708;50.872;5.306;2022-07-03T14:57:58;6.25;;;1.08;;
27187;SDS011;14708;50.872;5.306;2022-07-03T15:00:35;8.63;;;1.08;;
27187;SDS011;14708;50.872;5.306;2022-07-03T15:03:06;6.97;;;1.27;;
27187;SDS011;14708;50.872;5.306;2022-07-03T15:05:40;9.00;;;1.15;;
27187;SDS011;14708;50.872;5.306;2022-07-03T15:11:05;9.95;;;1.05;;
27187;SDS011;14708;50.872;5.306;2022-07-03T15:13:33;6.03;;;1.27;;
27187;SDS011;14708;50.872;5.306;2022-07-03T15:16:00;5.05;;;1.67;;
27187;SDS011;14708;50.872;5.306;2022-07-03T15:18:26;11.43;;;1.27;;
27187;SDS011;14708;50.872;5.306;2022-07-03T15:20:54;13.95;;;1.00;;
27187;SDS011;14708;50.872;5.306;2022-07-03T15:23:22;7.72;;;0.88;;
27187;SDS011;14708;50.872;5.306;2022-07-03T15:25:48;6.22;;;1.15;;
27187;SDS011;14708;50.872;5.306;2022-07-03T15:28:15;5.22;;;0.98;;
27187;SDS011;14708;50.872;5.306;2022-07-03T15:30:50;10.77;;;1.10;;
27187;SDS011;14708;50.872;5.306;2022-07-03T15:33:18;5.70;;;1.20;;
27187;SDS011;14708;50.872;5.306;2022-07-03T15:35:45;3.05;;;0.90;;
27187;SDS011;14708;50.872;5.306;2022-07-03T15:38:16;4.55;;;0.90;;
27187;SDS011;14708;50.872;5.306;2022-07-03T15:40:56;9.43;;;1.25;;
27187;SDS011;14708;50.872;5.306;2022-07-03T15:54:30;5.03;;;1.23;;
27187;SDS011;14708;50.872;5.306;2022-07-03T15:56:58;3.15;;;0.73;;
27187;SDS011;14708;50.872;5.306;2022-07-03T15:59:28;4.95;;;0.88;;
27187;SDS011;14708;50.872;5.306;2022-07-03T16:01:57;7.13;;;1.50;;
27187;SDS011;14708;50.872;5.306;2022-07-03T16:07:11;7.40;;;1.08;;
27187;SDS011;14708;50.872;5.306;2022-07-03T16:09:40;18.45;;;1.30;;
27187;SDS011;14708;50.872;5.306;2022-07-03T16:12:06;18.95;;;1.30;;
27187;SDS011;14708;50.872;5.306;2022-07-03T16:14:42;4.38;;;1.00;;
27187;SDS011;14708;50.872;5.306;2022-07-03T16:17:07;9.98;;;0.90;;
27187;SDS011;14708;50.872;5.306;2022-07-03T16:19:34;6.28;;;1.00;;
27187;SDS011;14708;50.872;5.306;2022-07-03T16:22:00;7.68;;;0.82;;
27187;SDS011;14708;50.872;5.306;2022-07-03T16:24:28;5.20;;;1.10;;
27187;SDS011;14708;50.872;5.306;2022-07-03T16:26:54;5.13;;;1.05;;
27187;SDS011;14708;50.872;5.306;2022-07-03T16:29:21;9.95;;;0.98;;
27187;SDS011;14708;50.872;5.306;2022-07-03T16:31:48;9.95;;;1.00;;
27187;SDS011;14708;50.872;5.306;2022-07-03T16:34:18;11.10;;;1.05;;
27187;SDS011;14708;50.872;5.306;2022-07-03T16:36:56;6.38;;;1.25;;
27187;SDS011;14708;50.872;5.306;2022-07-03T16:39:30;15.45;;;1.23;;
27187;SDS011;14708;50.872;5.306;2022-07-03T16:42:00;10.27;;;1.40;;
27187;SDS011;14708;50.872;5.306;2022-07-03T16:44:27;5.47;;;0.95;;